sensor_id;sensor_type;location;lat;lon;timestamp;P1;durP1;ratioP1;P2;durP2;ratioP2
3627;SDS011;1830;49.000;12.074;2023-04-15T00:02:13;11.87;;;9.97;;
3627;SDS011;1830;49.000;12.074;2023-04-15T00:04:42;12.63;;;9.43;;
3627;SDS011;1830;49.000;12.074;2023-04-15T00:07:12;10.07;;;8.97;;
3627;SDS011;1830;49.000;12.074;2023-04-15T00:09:43;10.50;;;9.20;;
3627;SDS011;1830;49.000;12.074;2023-04-15T00:12:10;12.33;;;9.30;;
3627;SDS011;1830;49.000;12.074;2023-04-15T00:14:37;10.87;;;9.77;;
3627;SDS011;1830;49.000;12.074;2023-04-15T00:17:11;12.50;;;9.90;;
3627;SDS011;1830;49.000;12.074;2023-04-15T00:19:47;10.10;;;9.10;;
3627;SDS011;1830;49.000;12.074;2023-04-15T00:22:14;12.07;;;9.03;;
3627;SDS011;1830;49.000;12.074;2023-04-15T00:24:46;9.70;;;8.70;;
3627;SDS011;1830;49.000;12.074;2023-04-15T00:27:12;13.80;;;9.10;;
3627;SDS011;1830;49.000;12.074;2023-04-15T00:29:42;10.93;;;8.80;;
3627;SDS011;1830;49.000;12.074;2023-04-15T00:32:08;10.53;;;7.77;;
3627;SDS011;1830;49.000;12.074;2023-04-15T00:34:38;9.20;;;8.20;;
3627;SDS011;1830;49.000;12.074;2023-04-15T00:37:20;11.00;;;8.13;;
3627;SDS011;1830;49.000;12.074;2023-04-15T00:40:04;8.93;;;8.13;;
3627;SDS011;1830;49.000;12.074;2023-04-15T00:42:38;9.63;;;8.63;;
3627;SDS011;1830;49.000;12.074;2023-04-15T00:45:07;8.83;;;7.30;;
3627;SDS011;1830;49.000;12.074;2023-04-15T00:47:46;11.60;;;8.10;;
3627;SDS011;1830;49.000;12.074;2023-04-15T00:50:19;9.57;;;8.00;;
3627;SDS011;1830;49.000;12.074;2023-04-15T00:52:49;10.03;;;7.50;;
3627;SDS011;1830;49.000;12.074;2023-04-15T00:55:43;13.43;;;8.37;;
3627;SDS011;1830;49.000;12.074;2023-04-15T00:58:43;11.57;;;7.07;;
3627;SDS011;1830;49.000;12.074;2023-04-15T01:01:23;8.03;;;7.10;;
3627;SDS011;1830;49.000;12.074;2023-04-15T01:03:54;8.80;;;7.90;;
3627;SDS011;1830;49.000;12.074;2023-04-15T01:06:49;8.50;;;7.60;;
3627;SDS011;1830;49.000;12.074;2023-04-15T01:12:07;10.60;;;8.30;;
3627;SDS011;1830;49.000;12.074;2023-04-15T01:14:42;8.00;;;7.20;;
3627;SDS011;1830;49.000;12.074;2023-04-15T01:17:09;10.13;;;9.00;;
3627;SDS011;1830;49.000;12.074;2023-04-15T01:19:47;10.83;;;9.17;;
3627;SDS011;1830;49.000;12.074;2023-04-15T01:22:22;9.60;;;8.63;;
3627;SDS011;1830;49.000;12.074;2023-04-15T01:27:49;10.23;;;8.30;;
3627;SDS011;1830;49.000;12.074;2023-04-15T01:30:49;9.97;;;8.93;;
3627;SDS011;1830;49.000;12.074;2023-04-15T01:33:59;9.07;;;7.50;;
3627;SDS011;1830;49.000;12.074;2023-04-15T01:36:53;9.57;;;8.60;;
3627;SDS011;1830;49.000;12.074;2023-04-15T01:39:32;9.60;;;8.70;;
3627;SDS011;1830;49.000;12.074;2023-04-15T01:42:03;12.33;;;8.50;;
3627;SDS011;1830;49.000;12.074;2023-04-15T01:44:34;10.53;;;8.70;;
3627;SDS011;1830;49.000;12.074;2023-04-15T01:47:17;15.10;;;9.00;;
3627;SDS011;1830;49.000;12.074;2023-04-15T01:50:15;10.50;;;8.03;;
3627;SDS011;1830;49.000;12.074;2023-04-15T01:53:13;11.40;;;9.17;;
3627;SDS011;1830;49.000;12.074;2023-04-15T01:55:50;9.10;;;8.20;;
3627;SDS011;1830;49.000;12.074;2023-04-15T01:58:19;14.20;;;9.90;;
3627;SDS011;1830;49.000;12.074;2023-04-15T02:03:54;11.93;;;9.50;;
3627;SDS011;1830;49.000;12.074;2023-04-15T02:06:35;11.10;;;10.00;;
3627;SDS011;1830;49.000;12.074;2023-04-15T02:09:13;11.47;;;9.67;;
3627;SDS011;1830;49.000;12.074;2023-04-15T02:11:46;10.60;;;8.97;;
3627;SDS011;1830;49.000;12.074;2023-04-15T02:14:33;16.00;;;9.83;;
3627;SDS011;1830;49.000;12.074;2023-04-15T02:17:05;10.73;;;9.73;;
3627;SDS011;1830;49.000;12.074;2023-04-15T02:19:39;13.80;;;8.93;;
3627;SDS011;1830;49.000;12.074;2023-04-15T02:22:16;11.03;;;9.90;;
3627;SDS011;1830;49.000;12.074;2023-04-15T02:25:06;10.47;;;9.33;;
3627;SDS011;1830;49.000;12.074;2023-04-15T02:27:44;10.50;;;9.40;;
3627;SDS011;1830;49.000;12.074;2023-04-15T02:30:20;12.10;;;10.03;;
3627;SDS011;1830;49.000;12.074;2023-04-15T02:32:51;10.17;;;9.13;;
3627;SDS011;1830;49.000;12.074;2023-04-15T02:35:32;11.80;;;9.87;;
3627;SDS011;1830;49.000;12.074;2023-04-15T02:38:00;12.20;;;9.57;;
3627;SDS011;1830;49.000;12.074;2023-04-15T02:40:46;11.70;;;10.50;;
3627;SDS011;1830;49.000;12.074;2023-04-15T02:43:21;11.43;;;9.97;;
3627;SDS011;1830;49.000;12.074;2023-04-15T02:45:51;11.47;;;10.10;;
3627;SDS011;1830;49.000;12.074;2023-04-15T02:48:26;10.73;;;9.63;;
3627;SDS011;1830;49.000;12.074;2023-04-15T02:51:20;10.07;;;8.93;;
3627;SDS011;1830;49.000;12.074;2023-04-15T02:53:49;10.60;;;8.97;;
3627;SDS011;1830;49.000;12.074;2023-04-15T02:56:28;11.50;;;10.23;;
3627;SDS011;1830;49.000;12.074;2023-04-15T02:59:20;11.00;;;9.90;;
3627;SDS011;1830;49.000;12.074;2023-04-15T03:02:02;11.40;;;9.10;;
3627;SDS011;1830;49.000;12.074;2023-04-15T03:04:46;11.23;;;9.30;;
3627;SDS011;1830;49.000;12.074;2023-04-15T03:07:31;11.33;;;9.87;;
3627;SDS011;1830;49.000;12.074;2023-04-15T03:13:29;14.57;;;9.77;;
3627;SDS011;1830;49.000;12.074;2023-04-15T03:16:28;15.30;;;9.27;;
3627;SDS011;1830;49.000;12.074;2023-04-15T03:19:18;10.93;;;9.83;;
3627;SDS011;1830;49.000;12.074;2023-04-15T03:25:18;13.13;;;9.83;;
3627;SDS011;1830;49.000;12.074;2023-04-15T03:28:15;12.70;;;10.13;;
3627;SDS011;1830;49.000;12.074;2023-04-15T03:34:14;15.37;;;13.00;;
3627;SDS011;1830;49.000;12.074;2023-04-15T03:37:20;12.60;;;11.30;;
3627;SDS011;1830;49.000;12.074;2023-04-15T03:43:51;15.80;;;11.73;;
3627;SDS011;1830;49.000;12.074;2023-04-15T03:46:42;18.50;;;13.30;;
3627;SDS011;1830;49.000;12.074;2023-04-15T03:49:43;16.53;;;13.37;;
3627;SDS011;1830;49.000;12.074;2023-04-15T03:52:13;16.80;;;13.20;;
3627;SDS011;1830;49.000;12.074;2023-04-15T03:54:57;19.53;;;14.93;;
3627;SDS011;1830;49.000;12.074;2023-04-15T03:57:55;20.37;;;16.40;;
3627;SDS011;1830;49.000;12.074;2023-04-15T04:11:39;20.97;;;15.83;;
3627;SDS011;1830;49.000;12.074;2023-04-15T04:14:50;18.10;;;14.90;;
3627;SDS011;1830;49.000;12.074;2023-04-15T04:21:27;21.40;;;15.97;;
3627;SDS011;1830;49.000;12.074;2023-04-15T04:24:00;19.23;;;14.77;;
3627;SDS011;1830;49.000;12.074;2023-04-15T04:26:51;17.57;;;14.50;;
3627;SDS011;1830;49.000;12.074;2023-04-15T04:29:18;21.23;;;14.50;;
3627;SDS011;1830;49.000;12.074;2023-04-15T04:31:53;17.77;;;14.90;;
3627;SDS011;1830;49.000;12.074;2023-04-15T04:37:51;18.40;;;13.87;;
3627;SDS011;1830;49.000;12.074;2023-04-15T04:40:19;19.20;;;15.37;;
3627;SDS011;1830;49.000;12.074;2023-04-15T04:46:00;22.30;;;15.30;;
3627;SDS011;1830;49.000;12.074;2023-04-15T04:55:30;21.40;;;15.10;;
3627;SDS011;1830;49.000;12.074;2023-04-15T05:01:16;24.80;;;15.60;;
3627;SDS011;1830;49.000;12.074;2023-04-15T05:37:17;11.80;;;7.80;;
3627;SDS011;1830;49.000;12.074;2023-04-15T05:39:45;4.87;;;4.40;;
3627;SDS011;1830;49.000;12.074;2023-04-15T05:42:12;12.73;;;10.03;;
3627;SDS011;1830;49.000;12.074;2023-04-15T05:44:39;15.80;;;10.70;;
3627;SDS011;1830;49.000;12.074;2023-04-15T05:47:06;16.57;;;10.60;;
3627;SDS011;1830;49.000;12.074;2023-04-15T05:49:34;10.27;;;8.40;;
3627;SDS011;1830;49.000;12.074;2023-04-15T05:52:01;10.17;;;8.63;;
3627;SDS011;1830;49.000;12.074;2023-04-15T05:54:29;12.67;;;9.70;;
3627;SDS011;1830;49.000;12.074;2023-04-15T05:56:57;13.40;;;10.67;;
3627;SDS011;1830;49.000;12.074;2023-04-15T05:59:23;16.87;;;14.40;;
3627;SDS011;1830;49.000;12.074;2023-04-15T06:01:51;12.27;;;10.80;;
3627;SDS011;1830;49.000;12.074;2023-04-15T06:04:17;20.07;;;13.60;;
3627;SDS011;1830;49.000;12.074;2023-04-15T06:06:44;11.97;;;10.10;;
3627;SDS011;1830;49.000;12.074;2023-04-15T06:09:11;15.10;;;10.23;;
3627;SDS011;1830;49.000;12.074;2023-04-15T06:11:39;13.50;;;10.83;;
3627;SDS011;1830;49.000;12.074;2023-04-15T06:14:06;17.80;;;12.17;;
3627;SDS011;1830;49.000;12.074;2023-04-15T06:16:33;10.83;;;9.60;;
3627;SDS011;1830;49.000;12.074;2023-04-15T06:19:00;13.13;;;10.80;;
3627;SDS011;1830;49.000;12.074;2023-04-15T06:21:27;14.70;;;10.60;;
3627;SDS011;1830;49.000;12.074;2023-04-15T06:23:55;14.67;;;11.20;;
3627;SDS011;1830;49.000;12.074;2023-04-15T06:26:22;19.80;;;14.07;;
3627;SDS011;1830;49.000;12.074;2023-04-15T06:28:50;13.27;;;11.10;;
3627;SDS011;1830;49.000;12.074;2023-04-15T06:31:17;12.33;;;10.00;;
3627;SDS011;1830;49.000;12.074;2023-04-15T06:33:43;10.23;;;9.20;;
3627;SDS011;1830;49.000;12.074;2023-04-15T06:36:10;14.43;;;10.60;;
3627;SDS011;1830;49.000;12.074;2023-04-15T06:38:37;20.50;;;11.70;;
3627;SDS011;1830;49.000;12.074;2023-04-15T06:41:04;8.60;;;7.10;;
3627;SDS011;1830;49.000;12.074;2023-04-15T06:43:31;9.13;;;8.10;;
3627;SDS011;1830;49.000;12.074;2023-04-15T06:45:59;10.67;;;8.73;;
3627;SDS011;1830;49.000;12.074;2023-04-15T06:48:26;16.57;;;12.07;;
3627;SDS011;1830;49.000;12.074;2023-04-15T06:50:53;8.70;;;7.77;;
3627;SDS011;1830;49.000;12.074;2023-04-15T06:53:20;7.10;;;6.27;;
3627;SDS011;1830;49.000;12.074;2023-04-15T06:55:47;8.40;;;6.60;;
3627;SDS011;1830;49.000;12.074;2023-04-15T06:58:13;7.80;;;7.00;;
3627;SDS011;1830;49.000;12.074;2023-04-15T07:00:41;7.87;;;7.17;;
3627;SDS011;1830;49.000;12.074;2023-04-15T07:03:10;7.93;;;6.07;;
3627;SDS011;1830;49.000;12.074;2023-04-15T07:05:38;7.43;;;6.70;;
3627;SDS011;1830;49.000;12.074;2023-04-15T07:08:05;11.20;;;7.40;;
3627;SDS011;1830;49.000;12.074;2023-04-15T07:10:33;8.80;;;8.00;;
3627;SDS011;1830;49.000;12.074;2023-04-15T07:12:59;14.23;;;6.70;;
3627;SDS011;1830;49.000;12.074;2023-04-15T07:15:26;8.20;;;7.20;;
3627;SDS011;1830;49.000;12.074;2023-04-15T07:17:53;12.07;;;9.27;;
3627;SDS011;1830;49.000;12.074;2023-04-15T07:20:22;9.97;;;7.80;;
3627;SDS011;1830;49.000;12.074;2023-04-15T07:22:48;8.73;;;7.80;;
3627;SDS011;1830;49.000;12.074;2023-04-15T07:25:15;12.07;;;8.30;;
3627;SDS011;1830;49.000;12.074;2023-04-15T07:27:43;8.50;;;7.60;;
3627;SDS011;1830;49.000;12.074;2023-04-15T07:30:10;11.17;;;9.33;;
3627;SDS011;1830;49.000;12.074;2023-04-15T07:32:37;7.20;;;5.73;;
3627;SDS011;1830;49.000;12.074;2023-04-15T07:35:04;8.63;;;7.53;;
3627;SDS011;1830;49.000;12.074;2023-04-15T07:37:33;7.67;;;6.87;;
3627;SDS011;1830;49.000;12.074;2023-04-15T07:40:00;9.87;;;8.33;;
3627;SDS011;1830;49.000;12.074;2023-04-15T07:42:28;10.87;;;8.33;;
3627;SDS011;1830;49.000;12.074;2023-04-15T07:44:55;9.40;;;7.80;;
3627;SDS011;1830;49.000;12.074;2023-04-15T07:47:22;10.10;;;7.53;;
3627;SDS011;1830;49.000;12.074;2023-04-15T07:49:49;11.63;;;9.53;;
3627;SDS011;1830;49.000;12.074;2023-04-15T07:52:16;14.10;;;9.40;;
3627;SDS011;1830;49.000;12.074;2023-04-15T07:54:45;8.47;;;7.57;;
3627;SDS011;1830;49.000;12.074;2023-04-15T07:57:11;8.00;;;7.20;;
3627;SDS011;1830;49.000;12.074;2023-04-15T07:59:38;14.80;;;9.47;;
3627;SDS011;1830;49.000;12.074;2023-04-15T08:02:05;8.60;;;7.80;;
3627;SDS011;1830;49.000;12.074;2023-04-15T08:04:32;9.20;;;7.67;;
3627;SDS011;1830;49.000;12.074;2023-04-15T08:06:59;14.20;;;9.93;;
3627;SDS011;1830;49.000;12.074;2023-04-15T08:09:26;10.03;;;8.10;;
3627;SDS011;1830;49.000;12.074;2023-04-15T08:11:54;9.97;;;7.70;;
3627;SDS011;1830;49.000;12.074;2023-04-15T08:14:21;7.13;;;6.43;;
3627;SDS011;1830;49.000;12.074;2023-04-15T08:16:49;9.60;;;7.33;;
3627;SDS011;1830;49.000;12.074;2023-04-15T08:19:16;8.77;;;7.33;;
3627;SDS011;1830;49.000;12.074;2023-04-15T08:21:43;14.13;;;7.50;;
3627;SDS011;1830;49.000;12.074;2023-04-15T08:24:10;7.53;;;6.60;;
3627;SDS011;1830;49.000;12.074;2023-04-15T08:26:37;8.83;;;7.33;;
3627;SDS011;1830;49.000;12.074;2023-04-15T08:29:05;7.10;;;6.17;;
3627;SDS011;1830;49.000;12.074;2023-04-15T08:31:32;16.13;;;8.17;;
3627;SDS011;1830;49.000;12.074;2023-04-15T08:34:00;12.00;;;9.00;;
3627;SDS011;1830;49.000;12.074;2023-04-15T08:36:27;16.37;;;9.87;;
3627;SDS011;1830;49.000;12.074;2023-04-15T08:38:54;24.13;;;12.43;;
3627;SDS011;1830;49.000;12.074;2023-04-15T08:41:22;8.50;;;6.00;;
3627;SDS011;1830;49.000;12.074;2023-04-15T08:43:53;42.50;;;19.30;;
3627;SDS011;1830;49.000;12.074;2023-04-15T08:46:24;55.97;;;24.47;;
3627;SDS011;1830;49.000;12.074;2023-04-15T08:48:51;50.50;;;21.40;;
3627;SDS011;1830;49.000;12.074;2023-04-15T08:51:23;18.43;;;10.27;;
3627;SDS011;1830;49.000;12.074;2023-04-15T08:53:50;13.43;;;12.03;;
3627;SDS011;1830;49.000;12.074;2023-04-15T08:56:17;10.70;;;8.60;;
3627;SDS011;1830;49.000;12.074;2023-04-15T08:58:46;5.57;;;5.07;;
3627;SDS011;1830;49.000;12.074;2023-04-15T09:01:14;9.53;;;7.27;;
3627;SDS011;1830;49.000;12.074;2023-04-15T09:03:42;8.87;;;7.53;;
3627;SDS011;1830;49.000;12.074;2023-04-15T09:06:10;6.00;;;5.43;;
3627;SDS011;1830;49.000;12.074;2023-04-15T09:08:37;8.17;;;6.50;;
3627;SDS011;1830;49.000;12.074;2023-04-15T09:11:04;28.57;;;12.13;;
3627;SDS011;1830;49.000;12.074;2023-04-15T09:13:31;10.00;;;7.37;;
3627;SDS011;1830;49.000;12.074;2023-04-15T09:15:58;7.83;;;5.77;;
3627;SDS011;1830;49.000;12.074;2023-04-15T09:18:28;5.83;;;5.33;;
3627;SDS011;1830;49.000;12.074;2023-04-15T09:20:57;6.73;;;6.13;;
3627;SDS011;1830;49.000;12.074;2023-04-15T09:23:31;4.80;;;4.30;;
3627;SDS011;1830;49.000;12.074;2023-04-15T09:25:58;6.40;;;5.90;;
3627;SDS011;1830;49.000;12.074;2023-04-15T09:28:26;8.33;;;5.10;;
3627;SDS011;1830;49.000;12.074;2023-04-15T09:30:56;6.00;;;4.13;;
3627;SDS011;1830;49.000;12.074;2023-04-15T09:33:23;6.83;;;5.40;;
3627;SDS011;1830;49.000;12.074;2023-04-15T09:35:59;6.67;;;5.87;;
3627;SDS011;1830;49.000;12.074;2023-04-15T09:38:27;7.07;;;4.67;;
3627;SDS011;1830;49.000;12.074;2023-04-15T09:40:56;4.33;;;3.30;;
3627;SDS011;1830;49.000;12.074;2023-04-15T09:43:36;4.10;;;3.80;;
3627;SDS011;1830;49.000;12.074;2023-04-15T09:46:04;6.33;;;4.63;;
3627;SDS011;1830;49.000;12.074;2023-04-15T09:48:30;3.17;;;2.97;;
3627;SDS011;1830;49.000;12.074;2023-04-15T09:50:59;3.33;;;3.07;;
3627;SDS011;1830;49.000;12.074;2023-04-15T09:53:26;3.53;;;3.20;;
3627;SDS011;1830;49.000;12.074;2023-04-15T09:55:54;3.97;;;3.27;;
3627;SDS011;1830;49.000;12.074;2023-04-15T09:58:22;3.57;;;3.27;;
3627;SDS011;1830;49.000;12.074;2023-04-15T10:00:51;6.60;;;3.30;;
3627;SDS011;1830;49.000;12.074;2023-04-15T10:03:19;3.17;;;2.90;;
3627;SDS011;1830;49.000;12.074;2023-04-15T10:05:48;2.97;;;2.80;;
3627;SDS011;1830;49.000;12.074;2023-04-15T10:08:18;3.23;;;2.93;;
3627;SDS011;1830;49.000;12.074;2023-04-15T10:10:46;2.60;;;2.40;;
3627;SDS011;1830;49.000;12.074;2023-04-15T10:13:13;2.73;;;2.53;;
3627;SDS011;1830;49.000;12.074;2023-04-15T10:15:43;2.37;;;2.27;;
3627;SDS011;1830;49.000;12.074;2023-04-15T10:18:13;3.40;;;3.10;;
3627;SDS011;1830;49.000;12.074;2023-04-15T10:20:41;3.03;;;2.80;;
3627;SDS011;1830;49.000;12.074;2023-04-15T10:23:10;4.10;;;3.80;;
3627;SDS011;1830;49.000;12.074;2023-04-15T10:25:39;2.67;;;2.47;;
3627;SDS011;1830;49.000;12.074;2023-04-15T10:28:06;3.00;;;2.80;;
3627;SDS011;1830;49.000;12.074;2023-04-15T10:30:34;3.50;;;3.20;;
3627;SDS011;1830;49.000;12.074;2023-04-15T10:33:02;3.27;;;3.07;;
3627;SDS011;1830;49.000;12.074;2023-04-15T10:35:30;5.07;;;3.53;;
3627;SDS011;1830;49.000;12.074;2023-04-15T10:37:59;4.80;;;2.70;;
3627;SDS011;1830;49.000;12.074;2023-04-15T10:40:26;3.33;;;3.13;;
3627;SDS011;1830;49.000;12.074;2023-04-15T10:42:58;4.97;;;2.83;;
3627;SDS011;1830;49.000;12.074;2023-04-15T10:45:26;3.00;;;2.80;;
3627;SDS011;1830;49.000;12.074;2023-04-15T10:47:54;5.40;;;3.23;;
3627;SDS011;1830;49.000;12.074;2023-04-15T10:50:24;2.80;;;2.60;;
3627;SDS011;1830;49.000;12.074;2023-04-15T10:52:52;4.80;;;2.70;;
3627;SDS011;1830;49.000;12.074;2023-04-15T10:55:23;2.90;;;2.70;;
3627;SDS011;1830;49.000;12.074;2023-04-15T10:57:51;2.50;;;2.40;;
3627;SDS011;1830;49.000;12.074;2023-04-15T11:00:23;4.13;;;3.70;;
3627;SDS011;1830;49.000;12.074;2023-04-15T11:02:51;2.60;;;2.40;;
3627;SDS011;1830;49.000;12.074;2023-04-15T11:05:20;2.97;;;2.67;;
3627;SDS011;1830;49.000;12.074;2023-04-15T11:07:49;2.60;;;2.50;;
3627;SDS011;1830;49.000;12.074;2023-04-15T11:13:19;2.33;;;2.23;;
3627;SDS011;1830;49.000;12.074;2023-04-15T11:15:49;2.43;;;2.33;;
3627;SDS011;1830;49.000;12.074;2023-04-15T11:18:17;1.83;;;1.83;;
3627;SDS011;1830;49.000;12.074;2023-04-15T11:20:46;4.13;;;2.90;;
3627;SDS011;1830;49.000;12.074;2023-04-15T11:23:14;1.67;;;1.67;;
3627;SDS011;1830;49.000;12.074;2023-04-15T11:25:43;1.60;;;1.50;;
3627;SDS011;1830;49.000;12.074;2023-04-15T11:28:10;2.00;;;1.90;;
3627;SDS011;1830;49.000;12.074;2023-04-15T11:30:38;1.83;;;1.73;;
3627;SDS011;1830;49.000;12.074;2023-04-15T11:33:09;2.03;;;1.93;;
3627;SDS011;1830;49.000;12.074;2023-04-15T11:35:39;3.40;;;3.17;;
3627;SDS011;1830;49.000;12.074;2023-04-15T11:38:07;3.13;;;2.93;;
3627;SDS011;1830;49.000;12.074;2023-04-15T11:40:36;2.13;;;2.03;;
3627;SDS011;1830;49.000;12.074;2023-04-15T11:43:03;2.10;;;2.00;;
3627;SDS011;1830;49.000;12.074;2023-04-15T11:45:31;2.10;;;2.00;;
3627;SDS011;1830;49.000;12.074;2023-04-15T11:48:04;1.93;;;1.83;;
3627;SDS011;1830;49.000;12.074;2023-04-15T11:50:34;1.67;;;1.60;;
3627;SDS011;1830;49.000;12.074;2023-04-15T11:53:02;1.33;;;1.33;;
3627;SDS011;1830;49.000;12.074;2023-04-15T11:55:30;1.50;;;1.40;;
3627;SDS011;1830;49.000;12.074;2023-04-15T11:58:09;1.50;;;1.40;;
3627;SDS011;1830;49.000;12.074;2023-04-15T12:00:37;1.83;;;1.57;;
3627;SDS011;1830;49.000;12.074;2023-04-15T12:03:11;1.80;;;1.70;;
3627;SDS011;1830;49.000;12.074;2023-04-15T12:08:48;3.00;;;2.80;;
3627;SDS011;1830;49.000;12.074;2023-04-15T12:11:19;2.10;;;2.00;;
3627;SDS011;1830;49.000;12.074;2023-04-15T12:13:46;4.70;;;3.50;;
3627;SDS011;1830;49.000;12.074;2023-04-15T12:16:15;3.53;;;3.23;;
3627;SDS011;1830;49.000;12.074;2023-04-15T12:18:46;2.53;;;2.30;;
3627;SDS011;1830;49.000;12.074;2023-04-15T12:21:17;3.73;;;3.50;;
3627;SDS011;1830;49.000;12.074;2023-04-15T12:23:47;4.73;;;4.20;;
3627;SDS011;1830;49.000;12.074;2023-04-15T12:26:15;2.37;;;2.23;;
3627;SDS011;1830;49.000;12.074;2023-04-15T12:28:43;6.87;;;5.33;;
3627;SDS011;1830;49.000;12.074;2023-04-15T12:31:10;1.70;;;1.60;;
3627;SDS011;1830;49.000;12.074;2023-04-15T12:33:38;2.10;;;2.07;;
3627;SDS011;1830;49.000;12.074;2023-04-15T12:36:05;2.67;;;2.37;;
3627;SDS011;1830;49.000;12.074;2023-04-15T12:38:33;4.30;;;3.40;;
3627;SDS011;1830;49.000;12.074;2023-04-15T12:41:00;5.40;;;4.07;;
3627;SDS011;1830;49.000;12.074;2023-04-15T12:43:27;4.93;;;4.47;;
3627;SDS011;1830;49.000;12.074;2023-04-15T12:45:54;99.10;;;43.93;;
3627;SDS011;1830;49.000;12.074;2023-04-15T12:48:21;27.50;;;14.00;;
3627;SDS011;1830;49.000;12.074;2023-04-15T12:50:47;23.37;;;13.40;;
3627;SDS011;1830;49.000;12.074;2023-04-15T12:53:14;3.13;;;2.93;;
3627;SDS011;1830;49.000;12.074;2023-04-15T12:55:42;14.20;;;10.80;;
3627;SDS011;1830;49.000;12.074;2023-04-15T12:58:09;3.10;;;2.90;;
3627;SDS011;1830;49.000;12.074;2023-04-15T13:00:36;2.40;;;1.87;;
3627;SDS011;1830;49.000;12.074;2023-04-15T13:03:03;8.60;;;6.40;;
3627;SDS011;1830;49.000;12.074;2023-04-15T13:05:30;3.10;;;2.90;;
3627;SDS011;1830;49.000;12.074;2023-04-15T13:07:57;1.80;;;1.70;;
3627;SDS011;1830;49.000;12.074;2023-04-15T13:10:24;3.47;;;2.93;;
3627;SDS011;1830;49.000;12.074;2023-04-15T13:12:53;4.80;;;4.50;;
3627;SDS011;1830;49.000;12.074;2023-04-15T13:15:20;3.83;;;3.53;;
3627;SDS011;1830;49.000;12.074;2023-04-15T13:17:47;4.30;;;3.90;;
3627;SDS011;1830;49.000;12.074;2023-04-15T13:20:15;3.10;;;2.90;;
3627;SDS011;1830;49.000;12.074;2023-04-15T13:22:42;3.00;;;2.90;;
3627;SDS011;1830;49.000;12.074;2023-04-15T13:25:09;8.53;;;2.27;;
3627;SDS011;1830;49.000;12.074;2023-04-15T13:27:36;2.63;;;2.53;;
3627;SDS011;1830;49.000;12.074;2023-04-15T13:30:05;3.40;;;3.10;;
3627;SDS011;1830;49.000;12.074;2023-04-15T13:32:33;3.50;;;3.20;;
3627;SDS011;1830;49.000;12.074;2023-04-15T13:35:00;2.53;;;2.43;;
3627;SDS011;1830;49.000;12.074;2023-04-15T13:37:27;3.23;;;3.03;;
3627;SDS011;1830;49.000;12.074;2023-04-15T13:39:54;3.57;;;3.37;;
3627;SDS011;1830;49.000;12.074;2023-04-15T13:42:21;3.07;;;2.93;;
3627;SDS011;1830;49.000;12.074;2023-04-15T13:44:49;2.80;;;2.60;;
3627;SDS011;1830;49.000;12.074;2023-04-15T13:47:17;2.70;;;2.57;;
3627;SDS011;1830;49.000;12.074;2023-04-15T13:49:45;3.60;;;3.37;;
3627;SDS011;1830;49.000;12.074;2023-04-15T13:52:12;2.23;;;2.13;;
3627;SDS011;1830;49.000;12.074;2023-04-15T13:54:39;2.50;;;2.30;;
3627;SDS011;1830;49.000;12.074;2023-04-15T13:57:06;4.53;;;4.13;;
3627;SDS011;1830;49.000;12.074;2023-04-15T13:59:35;4.43;;;4.13;;
3627;SDS011;1830;49.000;12.074;2023-04-15T14:02:01;2.70;;;2.50;;
3627;SDS011;1830;49.000;12.074;2023-04-15T14:04:30;3.07;;;2.90;;
3627;SDS011;1830;49.000;12.074;2023-04-15T14:06:58;2.73;;;2.63;;
3627;SDS011;1830;49.000;12.074;2023-04-15T14:09:25;4.07;;;3.40;;
3627;SDS011;1830;49.000;12.074;2023-04-15T14:11:51;4.97;;;3.43;;
3627;SDS011;1830;49.000;12.074;2023-04-15T14:14:18;12.80;;;9.20;;
3627;SDS011;1830;49.000;12.074;2023-04-15T14:16:45;3.80;;;3.60;;
3627;SDS011;1830;49.000;12.074;2023-04-15T14:19:13;4.17;;;3.87;;
3627;SDS011;1830;49.000;12.074;2023-04-15T14:21:41;10.07;;;7.90;;
3627;SDS011;1830;49.000;12.074;2023-04-15T14:24:08;4.67;;;4.10;;
3627;SDS011;1830;49.000;12.074;2023-04-15T14:26:35;5.70;;;5.20;;
3627;SDS011;1830;49.000;12.074;2023-04-15T14:29:01;30.23;;;14.10;;
3627;SDS011;1830;49.000;12.074;2023-04-15T14:31:28;18.10;;;9.83;;
3627;SDS011;1830;49.000;12.074;2023-04-15T14:33:55;13.60;;;7.73;;
3627;SDS011;1830;49.000;12.074;2023-04-15T14:36:22;6.47;;;5.90;;
3627;SDS011;1830;49.000;12.074;2023-04-15T14:38:50;4.73;;;4.10;;
3627;SDS011;1830;49.000;12.074;2023-04-15T14:41:17;6.47;;;5.83;;
3627;SDS011;1830;49.000;12.074;2023-04-15T14:43:43;7.30;;;6.60;;
3627;SDS011;1830;49.000;12.074;2023-04-15T14:46:10;6.80;;;6.10;;
3627;SDS011;1830;49.000;12.074;2023-04-15T14:48:38;8.70;;;7.30;;
3627;SDS011;1830;49.000;12.074;2023-04-15T14:51:05;9.90;;;7.83;;
3627;SDS011;1830;49.000;12.074;2023-04-15T14:53:32;11.43;;;9.40;;
3627;SDS011;1830;49.000;12.074;2023-04-15T14:56:00;10.97;;;8.30;;
3627;SDS011;1830;49.000;12.074;2023-04-15T14:58:27;12.90;;;8.37;;
3627;SDS011;1830;49.000;12.074;2023-04-15T15:00:54;23.73;;;16.77;;
3627;SDS011;1830;49.000;12.074;2023-04-15T15:03:22;16.10;;;11.73;;
3627;SDS011;1830;49.000;12.074;2023-04-15T15:05:49;10.17;;;9.27;;
3627;SDS011;1830;49.000;12.074;2023-04-15T15:08:18;13.77;;;10.60;;
3627;SDS011;1830;49.000;12.074;2023-04-15T15:10:45;7.40;;;5.67;;
3627;SDS011;1830;49.000;12.074;2023-04-15T15:13:13;18.27;;;10.87;;
3627;SDS011;1830;49.000;12.074;2023-04-15T15:15:40;6.80;;;6.10;;
3627;SDS011;1830;49.000;12.074;2023-04-15T15:18:07;9.00;;;6.30;;
3627;SDS011;1830;49.000;12.074;2023-04-15T15:20:35;4.73;;;4.33;;
3627;SDS011;1830;49.000;12.074;2023-04-15T15:23:01;5.70;;;5.20;;
3627;SDS011;1830;49.000;12.074;2023-04-15T15:25:28;15.60;;;11.97;;
3627;SDS011;1830;49.000;12.074;2023-04-15T15:27:56;7.70;;;6.93;;
3627;SDS011;1830;49.000;12.074;2023-04-15T15:30:24;5.33;;;4.93;;
3627;SDS011;1830;49.000;12.074;2023-04-15T15:32:51;8.90;;;7.10;;
3627;SDS011;1830;49.000;12.074;2023-04-15T15:35:18;16.90;;;13.90;;
3627;SDS011;1830;49.000;12.074;2023-04-15T15:37:46;22.60;;;17.30;;
3627;SDS011;1830;49.000;12.074;2023-04-15T15:40:13;49.20;;;29.83;;
3627;SDS011;1830;49.000;12.074;2023-04-15T15:42:40;34.67;;;23.10;;
3627;SDS011;1830;49.000;12.074;2023-04-15T15:45:07;26.83;;;18.63;;
3627;SDS011;1830;49.000;12.074;2023-04-15T15:47:36;32.23;;;22.93;;
3627;SDS011;1830;49.000;12.074;2023-04-15T15:50:03;11.77;;;10.57;;
3627;SDS011;1830;49.000;12.074;2023-04-15T15:52:31;16.80;;;13.60;;
3627;SDS011;1830;49.000;12.074;2023-04-15T15:54:58;7.10;;;6.50;;
3627;SDS011;1830;49.000;12.074;2023-04-15T15:57:26;10.23;;;7.30;;
3627;SDS011;1830;49.000;12.074;2023-04-15T15:59:52;8.23;;;7.13;;
3627;SDS011;1830;49.000;12.074;2023-04-15T16:02:19;8.87;;;7.57;;
3627;SDS011;1830;49.000;12.074;2023-04-15T16:04:47;10.47;;;9.13;;
3627;SDS011;1830;49.000;12.074;2023-04-15T16:07:16;13.63;;;10.40;;
3627;SDS011;1830;49.000;12.074;2023-04-15T16:09:43;14.10;;;10.23;;
3627;SDS011;1830;49.000;12.074;2023-04-15T16:12:10;10.47;;;8.90;;
3627;SDS011;1830;49.000;12.074;2023-04-15T16:14:37;11.53;;;8.53;;
3627;SDS011;1830;49.000;12.074;2023-04-15T16:17:04;10.60;;;7.97;;
3627;SDS011;1830;49.000;12.074;2023-04-15T16:19:31;18.50;;;12.97;;
3627;SDS011;1830;49.000;12.074;2023-04-15T16:22:00;10.60;;;8.40;;
3627;SDS011;1830;49.000;12.074;2023-04-15T16:24:27;16.60;;;11.07;;
3627;SDS011;1830;49.000;12.074;2023-04-15T16:26:54;8.23;;;7.43;;
3627;SDS011;1830;49.000;12.074;2023-04-15T16:29:23;8.73;;;7.90;;
3627;SDS011;1830;49.000;12.074;2023-04-15T16:31:50;19.50;;;11.60;;
3627;SDS011;1830;49.000;12.074;2023-04-15T16:34:17;9.70;;;8.10;;
3627;SDS011;1830;49.000;12.074;2023-04-15T16:36:44;11.97;;;8.87;;
3627;SDS011;1830;49.000;12.074;2023-04-15T16:39:13;22.00;;;14.03;;
3627;SDS011;1830;49.000;12.074;2023-04-15T16:41:40;7.27;;;6.57;;
3627;SDS011;1830;49.000;12.074;2023-04-15T16:44:07;17.23;;;11.27;;
3627;SDS011;1830;49.000;12.074;2023-04-15T16:46:34;8.90;;;8.10;;
3627;SDS011;1830;49.000;12.074;2023-04-15T16:49:01;7.80;;;7.00;;